createdAt,value
2023-03-01T05:01:18.444Z,23.78
2023-03-01T05:03:46.355Z,23.70
2023-03-01T05:06:13.857Z,23.80
2023-03-01T05:08:41.604Z,23.85
2023-03-01T05:11:11.446Z,23.75
2023-03-01T05:13:39.371Z,23.56
2023-03-01T05:16:06.762Z,23.86
2023-03-01T05:18:34.010Z,23.86
2023-03-01T05:21:05.505Z,23.86
2023-03-01T05:23:32.906Z,23.82
2023-03-01T05:26:00.677Z,23.83
2023-03-01T05:28:27.372Z,23.86
2023-03-01T05:30:54.914Z,23.86
2023-03-01T05:33:22.891Z,23.73
2023-03-01T05:35:49.955Z,23.84
2023-03-01T05:38:16.603Z,23.85
2023-03-01T05:40:46.882Z,23.88
2023-03-01T05:43:14.058Z,23.89
2023-03-01T05:45:41.550Z,23.89
2023-03-01T05:48:08.434Z,23.91
2023-03-01T05:50:37.080Z,23.88
2023-03-01T05:53:06.705Z,23.88
2023-03-01T05:55:33.474Z,23.87
2023-03-01T05:58:01.190Z,23.80
2023-03-01T06:00:30.422Z,23.82
2023-03-01T06:03:00.736Z,23.73
2023-03-01T06:05:27.743Z,23.70
2023-03-01T06:07:54.357Z,23.84
2023-03-01T06:10:24.405Z,23.84
2023-03-01T06:12:50.951Z,23.84
2023-03-01T06:15:17.738Z,23.87
2023-03-01T06:17:45.301Z,23.86
2023-03-01T06:20:13.823Z,23.83
2023-03-01T06:22:40.443Z,23.85
2023-03-01T06:25:07.797Z,23.82
2023-03-01T06:27:34.317Z,23.78
2023-03-01T06:30:00.862Z,23.83
2023-03-01T06:32:27.508Z,23.79
2023-03-01T06:34:54.161Z,23.80
2023-03-01T06:37:23.589Z,23.75
2023-03-01T06:39:53.170Z,23.83
2023-03-01T06:42:19.739Z,23.83
2023-03-01T06:44:46.869Z,23.84
2023-03-01T06:47:13.397Z,23.85
2023-03-01T06:49:39.955Z,23.70
2023-03-01T06:52:06.461Z,23.84
2023-03-01T06:54:33.005Z,23.85
2023-03-01T06:56:59.540Z,23.83
2023-03-01T06:59:26.053Z,23.82
2023-03-01T07:01:52.619Z,23.84
2023-03-01T07:04:19.157Z,23.72
2023-03-01T07:06:45.654Z,23.77
2023-03-01T07:09:12.167Z,23.80
2023-03-01T07:11:41.739Z,23.88
2023-03-01T07:14:10.865Z,23.85
2023-03-01T07:16:37.441Z,23.82
2023-03-01T07:19:04.070Z,23.83
2023-03-01T07:21:30.704Z,23.81
2023-03-01T07:23:57.294Z,23.76
2023-03-01T07:26:26.149Z,23.89
2023-03-01T07:28:52.838Z,23.75
2023-03-01T07:31:19.451Z,23.89
2023-03-01T07:33:46.075Z,23.84
2023-03-01T07:36:12.610Z,23.90
2023-03-01T07:38:39.186Z,23.88
2023-03-01T07:41:06.677Z,23.89
2023-03-01T07:43:33.346Z,23.86
2023-03-01T07:46:03.117Z,23.86
2023-03-01T07:48:30.257Z,23.88
2023-03-01T07:51:03.743Z,23.87
2023-03-01T07:53:31.811Z,23.91
2023-03-01T07:56:09.230Z,23.93
2023-03-01T07:58:36.715Z,23.96
2023-03-01T08:01:04.326Z,23.92
2023-03-01T08:03:30.928Z,23.97
2023-03-01T08:06:02.366Z,23.99
2023-03-01T08:08:29.003Z,23.98
2023-03-01T08:10:59.552Z,24.01
2023-03-01T08:13:26.197Z,24.01
2023-03-01T08:15:52.922Z,23.92
2023-03-01T08:18:19.731Z,23.98
2023-03-01T08:20:46.473Z,23.93
2023-03-01T08:23:13.043Z,24.02
2023-03-01T08:25:39.746Z,24.03
2023-03-01T08:28:06.447Z,24.01
2023-03-01T08:30:32.987Z,23.96
2023-03-01T08:32:59.622Z,23.98
2023-03-01T08:35:26.336Z,23.97
2023-03-01T08:37:53.032Z,24.01
2023-03-01T08:40:19.641Z,24.01
2023-03-01T08:42:46.791Z,23.98
2023-03-01T08:45:15.123Z,23.90
2023-03-01T08:47:41.684Z,24.04
2023-03-01T08:50:08.930Z,24.04
2023-03-01T08:52:35.570Z,24.11
2023-03-01T08:55:02.503Z,24.12
2023-03-01T08:57:29.133Z,24.12
2023-03-01T08:59:57.083Z,24.16
2023-03-01T09:02:23.801Z,24.17
2023-03-01T09:04:50.518Z,24.18
2023-03-01T09:07:17.128Z,24.10
2023-03-01T09:09:43.765Z,24.21
2023-03-01T09:12:10.615Z,24.22
2023-03-01T09:14:39.550Z,24.25
2023-03-01T09:17:06.295Z,24.21
2023-03-01T09:19:32.899Z,24.28
2023-03-01T09:21:59.519Z,24.24
2023-03-01T09:24:26.348Z,24.25
2023-03-01T09:26:56.621Z,24.22
2023-03-01T09:29:23.580Z,24.26
2023-03-01T09:31:50.193Z,24.31
2023-03-01T09:34:24.160Z,24.31
2023-03-01T09:36:51.609Z,24.33
2023-03-01T09:39:21.589Z,24.33
2023-03-01T09:42:06.312Z,24.33
2023-03-01T09:44:58.576Z,24.41
2023-03-01T09:47:30.126Z,24.43
2023-03-01T09:50:03.407Z,24.45
2023-03-01T09:52:32.078Z,24.46
2023-03-01T09:55:00.745Z,24.49
2023-03-01T09:57:42.377Z,24.53
2023-03-01T10:00:15.024Z,24.51
2023-03-01T10:02:53.723Z,24.56
2023-03-01T10:05:44.024Z,24.55
2023-03-01T10:08:37.111Z,24.64
2023-03-01T10:11:04.912Z,24.59
2023-03-01T10:13:50.387Z,24.66
2023-03-01T10:16:23.998Z,24.62
2023-03-01T10:18:54.794Z,24.69
2023-03-01T10:21:21.504Z,24.76
2023-03-01T10:23:51.414Z,24.78
2023-03-01T10:26:41.122Z,24.82
2023-03-01T10:29:12.114Z,24.84
2023-03-01T10:31:41.604Z,24.88
2023-03-01T10:34:30.082Z,24.91
2023-03-01T10:36:58.441Z,24.94
2023-03-01T10:39:25.812Z,24.96
2023-03-01T10:42:04.317Z,24.99
2023-03-01T10:44:49.970Z,25.06
2023-03-01T10:47:28.561Z,25.11
2023-03-01T10:50:00.107Z,25.14
2023-03-01T10:52:29.744Z,25.17
2023-03-01T10:55:01.742Z,25.20
2023-03-01T10:57:34.532Z,25.19
2023-03-01T11:00:25.414Z,25.34
2023-03-01T11:03:03.495Z,25.31
2023-03-01T11:05:31.386Z,25.35
2023-03-01T11:07:59.154Z,25.38
2023-03-01T11:10:30.499Z,25.44
2023-03-01T11:13:10.284Z,25.53
2023-03-01T11:15:36.944Z,25.45
2023-03-01T11:18:13.903Z,25.50
2023-03-01T11:20:40.966Z,25.56
2023-03-01T11:23:11.183Z,25.59
2023-03-01T11:25:38.928Z,25.58
2023-03-01T11:28:06.447Z,25.59
2023-03-01T11:31:06.795Z,25.65
2023-03-01T11:33:47.834Z,25.70
2023-03-01T11:36:20.601Z,25.70
2023-03-01T11:38:47.179Z,25.70
2023-03-01T11:41:19.813Z,25.74
2023-03-01T11:44:25.689Z,25.79
2023-03-01T11:47:24.908Z,25.76
2023-03-01T11:50:12.717Z,25.77
2023-03-01T11:53:14.330Z,25.78
2023-03-01T11:55:55.370Z,25.79
2023-03-01T11:58:28.460Z,25.77
2023-03-01T12:01:05.376Z,25.84
2023-03-01T12:03:45.264Z,25.82
2023-03-01T12:06:32.390Z,25.90
2023-03-01T12:09:12.350Z,25.89
2023-03-01T12:12:11.048Z,25.97
2023-03-01T12:14:52.608Z,26.00
2023-03-01T12:17:50.088Z,26.02
2023-03-01T12:20:21.571Z,26.02
2023-03-01T12:23:20.650Z,26.04
2023-03-01T12:25:53.118Z,26.06
2023-03-01T12:28:31.634Z,26.09
2023-03-01T12:31:21.852Z,26.12
2023-03-01T12:34:02.755Z,26.20
2023-03-01T12:36:34.900Z,26.22
2023-03-01T12:39:34.255Z,26.23
2023-03-01T12:42:19.328Z,26.31
2023-03-01T12:44:56.692Z,26.33
2023-03-01T12:47:59.777Z,26.40
2023-03-01T12:50:30.010Z,26.41
2023-03-01T12:52:57.286Z,26.45
2023-03-01T12:55:38.899Z,26.49
2023-03-01T12:58:19.466Z,26.49
2023-03-01T13:01:07.396Z,26.55
2023-03-01T13:03:59.488Z,26.58
2023-03-01T13:06:52.205Z,26.57
2023-03-01T13:09:40.310Z,26.69
2023-03-01T13:12:45.233Z,26.71
2023-03-01T13:15:23.698Z,26.72
2023-03-01T13:18:26.537Z,26.75
2023-03-01T13:20:58.189Z,26.75
2023-03-01T13:23:27.058Z,26.77
2023-03-01T13:25:59.695Z,26.80
2023-03-01T13:28:38.353Z,26.83
2023-03-01T13:31:06.090Z,26.82
2023-03-01T13:33:34.034Z,26.82
2023-03-01T13:36:00.953Z,26.84
2023-03-01T13:39:07.730Z,26.88
2023-03-01T13:41:44.489Z,26.91
2023-03-01T13:44:29.963Z,26.93
2023-03-01T13:47:05.409Z,26.90
2023-03-01T13:49:49.193Z,26.92
2023-03-01T13:52:26.828Z,26.92
2023-03-01T13:54:53.527Z,26.92
2023-03-01T13:57:25.835Z,26.90
2023-03-01T13:59:52.400Z,26.96
2023-03-01T14:02:18.933Z,26.98
2023-03-01T14:04:45.591Z,26.95
2023-03-01T14:07:22.619Z,26.98
2023-03-01T14:09:51.846Z,26.99
2023-03-01T14:12:39.686Z,27.01
2023-03-01T14:15:28.200Z,27.06
2023-03-01T14:18:16.067Z,27.05
2023-03-01T14:20:44.004Z,27.05
2023-03-01T14:23:19.610Z,27.05
2023-03-01T14:25:52.901Z,27.08
2023-03-01T14:28:26.577Z,27.08
2023-03-01T14:30:54.688Z,27.08
2023-03-01T14:33:28.496Z,27.09
2023-03-01T14:36:10.147Z,27.09
2023-03-01T14:38:38.849Z,27.03
2023-03-01T14:41:16.211Z,27.11
2023-03-01T14:43:46.211Z,27.08
2023-03-01T14:46:39.438Z,27.13
2023-03-01T14:49:26.313Z,27.22
2023-03-01T14:52:19.348Z,27.19
2023-03-01T14:54:48.032Z,27.13
2023-03-01T14:57:25.863Z,27.07
2023-03-01T14:59:55.476Z,27.02
2023-03-01T15:02:24.032Z,27.16
2023-03-01T15:04:52.656Z,27.15
2023-03-01T15:07:19.497Z,27.12
2023-03-01T15:09:46.228Z,27.11
2023-03-01T15:12:26.589Z,27.06
2023-03-01T15:15:03.232Z,27.09
2023-03-01T15:17:32.199Z,27.13
2023-03-01T15:19:59.149Z,27.05
2023-03-01T15:22:27.186Z,27.06
2023-03-01T15:24:53.944Z,27.08
2023-03-01T15:27:22.757Z,27.09
2023-03-01T15:30:00.327Z,27.02
2023-03-01T15:32:40.136Z,27.08
2023-03-01T15:35:45.830Z,26.90
2023-03-01T15:38:32.866Z,26.56
2023-03-01T15:41:22.392Z,26.37
2023-03-01T15:43:50.626Z,26.35
2023-03-01T15:46:31.091Z,26.35
2023-03-01T15:49:05.592Z,26.35
2023-03-01T15:51:36.824Z,26.35
2023-03-01T15:54:35.465Z,26.38
2023-03-01T15:57:02.025Z,26.24
2023-03-01T15:59:28.695Z,26.31
2023-03-01T16:01:59.686Z,26.31
2023-03-01T16:04:29.622Z,26.25
2023-03-01T16:06:56.595Z,26.26
2023-03-01T16:09:24.360Z,26.24
2023-03-01T16:11:51.613Z,26.24
2023-03-01T16:14:18.377Z,26.22
2023-03-01T16:16:45.413Z,26.21
2023-03-01T16:19:12.444Z,26.20
2023-03-01T16:21:39.165Z,26.18
2023-03-01T16:24:07.320Z,26.16
2023-03-01T16:26:34.010Z,26.14
2023-03-01T16:29:00.660Z,26.10
2023-03-01T16:31:28.182Z,26.10
2023-03-01T16:33:56.063Z,26.08
2023-03-01T16:36:24.757Z,26.07
2023-03-01T16:38:52.607Z,25.97
2023-03-01T16:41:20.489Z,26.04
2023-03-01T16:43:47.843Z,26.03
2023-03-01T16:46:17.353Z,26.02
2023-03-01T16:48:44.317Z,26.02
2023-03-01T16:51:18.214Z,26.00
2023-03-01T16:53:52.310Z,25.99
2023-03-01T16:56:19.653Z,25.97
2023-03-01T16:58:46.442Z,25.96
2023-03-01T17:01:18.615Z,25.96
2023-03-01T17:03:47.338Z,25.87
2023-03-01T17:06:27.087Z,25.93
2023-03-01T17:08:56.078Z,25.91
2023-03-01T17:11:23.300Z,25.89
2023-03-01T17:13:50.166Z,25.88
2023-03-01T17:16:18.897Z,25.85
2023-03-01T17:18:45.982Z,25.80
2023-03-01T17:21:15.173Z,25.75
2023-03-01T17:23:43.144Z,25.74
2023-03-01T17:26:09.865Z,25.78
2023-03-01T17:28:37.135Z,25.72
2023-03-01T17:31:04.833Z,25.79
2023-03-01T17:33:31.642Z,25.76
2023-03-01T17:35:58.749Z,25.70
2023-03-01T17:38:25.702Z,25.75
2023-03-01T17:40:52.313Z,25.73
2023-03-01T17:43:18.984Z,25.73
2023-03-01T17:45:48.610Z,25.74
2023-03-01T17:48:15.812Z,25.72
2023-03-01T17:50:42.439Z,25.73
2023-03-01T17:53:10.102Z,25.73
2023-03-01T17:55:41.266Z,25.70
2023-03-01T17:58:08.598Z,25.73
2023-03-01T18:00:35.469Z,25.75
2023-03-01T18:03:02.442Z,25.75
2023-03-01T18:05:32.417Z,25.79
2023-03-01T18:07:59.136Z,25.80
2023-03-01T18:10:25.924Z,25.79
2023-03-01T18:12:52.732Z,25.81
2023-03-01T18:15:20.238Z,25.84
2023-03-01T18:17:47.794Z,25.86
2023-03-01T18:20:15.467Z,25.79
2023-03-01T18:22:52.928Z,25.94
2023-03-01T18:25:20.815Z,25.95
2023-03-01T18:27:47.566Z,26.01
2023-03-01T18:30:14.756Z,26.02
2023-03-01T18:32:41.538Z,26.01
2023-03-01T18:35:08.585Z,26.02
2023-03-01T18:37:35.218Z,26.00
2023-03-01T18:40:01.888Z,25.99
2023-03-01T18:42:28.673Z,25.98
2023-03-01T18:44:55.677Z,25.99
2023-03-01T18:47:25.376Z,25.91
2023-03-01T18:49:52.203Z,25.89
2023-03-01T18:52:19.008Z,25.96
2023-03-01T18:54:46.030Z,25.89
2023-03-01T18:57:12.949Z,25.89
2023-03-01T18:59:39.777Z,25.92
2023-03-01T19:02:06.695Z,25.91
2023-03-01T19:04:33.450Z,25.93
2023-03-01T19:07:02.270Z,25.94
2023-03-01T19:09:30.630Z,25.93
2023-03-01T19:12:01.012Z,25.89
2023-03-01T19:14:28.197Z,25.87
2023-03-01T19:16:55.138Z,25.92
2023-03-01T19:19:21.894Z,25.85
2023-03-01T19:21:59.533Z,25.93
2023-03-01T19:24:35.465Z,26.02
2023-03-01T19:27:02.346Z,25.96
2023-03-01T19:29:29.330Z,25.92
2023-03-01T19:31:56.292Z,25.94
2023-03-01T19:34:24.504Z,25.90
2023-03-01T19:36:51.636Z,25.92
2023-03-01T19:39:18.392Z,25.92
2023-03-01T19:41:45.087Z,25.89
2023-03-01T19:44:12.430Z,25.81
2023-03-01T19:46:39.427Z,25.73
2023-03-01T19:49:06.361Z,25.77
2023-03-01T19:51:38.919Z,25.75
2023-03-01T19:54:06.525Z,25.76
2023-03-01T19:56:34.025Z,25.67
2023-03-01T19:59:04.195Z,25.67
2023-03-01T20:01:32.934Z,25.61
2023-03-01T20:04:03.312Z,25.39
2023-03-01T20:06:30.573Z,25.65
2023-03-01T20:09:06.270Z,25.58
2023-03-01T20:11:35.941Z,25.57
2023-03-01T20:14:03.678Z,25.57
2023-03-01T20:16:30.917Z,25.62
2023-03-01T20:19:00.590Z,25.48
2023-03-01T20:21:27.969Z,25.64
2023-03-01T20:23:54.820Z,25.61
2023-03-01T20:26:22.025Z,25.61
2023-03-01T20:28:50.546Z,25.60
2023-03-01T20:31:18.261Z,25.61
2023-03-01T20:33:44.938Z,25.62
2023-03-01T20:36:11.799Z,25.60
2023-03-01T20:38:38.665Z,25.60
2023-03-01T20:41:10.026Z,25.61
2023-03-01T20:43:37.068Z,25.61
2023-03-01T20:46:07.842Z,25.58
2023-03-01T20:48:34.737Z,25.60
2023-03-01T20:51:05.366Z,25.57
2023-03-01T20:53:32.072Z,25.57
2023-03-01T20:56:05.698Z,25.57
2023-03-01T20:58:36.332Z,25.55
2023-03-01T21:01:03.496Z,25.55
2023-03-01T21:03:30.252Z,25.53
2023-03-01T21:05:57.728Z,25.48
2023-03-01T21:08:24.573Z,25.47
2023-03-01T21:10:52.127Z,25.38
2023-03-01T21:13:19.004Z,25.43
2023-03-01T21:16:07.716Z,25.49
2023-03-01T21:18:36.041Z,25.41
2023-03-01T21:21:05.559Z,25.38
2023-03-01T21:23:33.514Z,25.40
2023-03-01T21:26:10.838Z,25.42
2023-03-01T21:28:37.614Z,25.39
2023-03-01T21:31:08.753Z,25.37
2023-03-01T21:33:36.110Z,25.35
2023-03-01T21:36:05.549Z,25.35
2023-03-01T21:38:37.173Z,25.33
2023-03-01T21:41:11.340Z,25.34
2023-03-01T21:43:38.121Z,25.20
2023-03-01T21:46:06.009Z,25.33
2023-03-01T21:48:32.712Z,25.25
2023-03-01T21:51:00.489Z,25.29
2023-03-01T21:53:28.314Z,25.22
2023-03-01T21:55:55.013Z,25.16
2023-03-01T21:58:21.774Z,25.13
2023-03-01T22:00:51.620Z,25.16
2023-03-01T22:03:18.623Z,25.06
2023-03-01T22:05:57.419Z,25.24
2023-03-01T22:08:24.284Z,25.05
2023-03-01T22:10:51.140Z,24.86
2023-03-01T22:13:18.347Z,24.93
2023-03-01T22:15:45.088Z,25.13
2023-03-01T22:18:12.139Z,25.02
2023-03-01T22:20:39.277Z,24.89
2023-03-01T22:23:06.058Z,24.80
2023-03-01T22:25:32.712Z,25.03
2023-03-01T22:27:59.435Z,24.86
